createdAt,value
2018-03-02T00:02:16.252Z,43.60
2018-03-02T00:04:43.793Z,43.60
2018-03-02T00:07:12.158Z,43.60
2018-03-02T00:09:39.808Z,43.60
2018-03-02T00:12:07.352Z,43.60
2018-03-02T00:14:34.955Z,43.40
2018-03-02T00:17:03.266Z,43.60
2018-03-02T00:19:30.829Z,43.60
2018-03-02T00:21:58.379Z,43.60
2018-03-02T00:24:26.714Z,43.60
2018-03-02T00:26:54.252Z,43.60
2018-03-02T00:29:21.798Z,43.80
2018-03-02T00:31:50.122Z,44.00
2018-03-02T00:34:17.725Z,43.90
2018-03-02T00:36:45.290Z,44.00
2018-03-02T00:39:12.811Z,44.10
2018-03-02T00:41:40.346Z,44.20
2018-03-02T00:44:08.650Z,44.30
2018-03-02T00:46:36.340Z,44.30
2018-03-02T00:49:03.882Z,44.30
2018-03-02T00:51:31.407Z,44.30
2018-03-02T00:53:58.996Z,44.40
2018-03-02T00:56:27.317Z,44.70
2018-03-02T00:58:54.876Z,44.70
2018-03-02T01:01:22.429Z,44.70
2018-03-02T01:03:49.966Z,44.80
2018-03-02T01:06:18.348Z,44.90
2018-03-02T01:08:46.666Z,44.90
2018-03-02T01:11:14.325Z,44.90
2018-03-02T01:13:41.866Z,44.90
2018-03-02T01:16:10.174Z,45.10
2018-03-02T01:18:37.720Z,45.00
2018-03-02T01:21:06.045Z,45.30
2018-03-02T01:23:33.582Z,45.30
2018-03-02T01:26:01.132Z,45.40
2018-03-02T01:28:29.477Z,45.60
2018-03-02T01:30:57.944Z,45.60
2018-03-02T01:33:25.547Z,45.40
2018-03-02T01:35:53.091Z,45.50
2018-03-02T01:38:20.764Z,45.70
2018-03-02T01:40:48.345Z,45.40
2018-03-02T01:43:15.878Z,45.30
2018-03-02T01:45:43.457Z,45.30
2018-03-02T01:48:11.032Z,45.40
2018-03-02T01:50:38.589Z,45.50
2018-03-02T01:53:06.221Z,45.50
2018-03-02T01:55:33.866Z,45.60
2018-03-02T01:58:02.273Z,45.50
2018-03-02T02:00:29.818Z,45.50
2018-03-02T02:02:58.128Z,45.30
2018-03-02T02:05:25.688Z,45.20
2018-03-02T02:07:53.232Z,45.30
2018-03-02T02:10:20.800Z,45.60
2018-03-02T02:12:49.114Z,46.40
2018-03-02T02:15:16.659Z,46.40
2018-03-02T02:17:44.192Z,46.70
2018-03-02T02:20:11.735Z,46.90
2018-03-02T02:22:39.449Z,47.30
2018-03-02T02:25:07.034Z,47.90
2018-03-02T02:27:34.573Z,47.80
2018-03-02T02:30:02.874Z,46.90
2018-03-02T02:32:30.425Z,47.00
2018-03-02T02:34:58.898Z,47.10
2018-03-02T02:37:27.206Z,47.30
2018-03-02T02:39:54.875Z,47.30
2018-03-02T02:42:22.759Z,46.90
2018-03-02T02:44:50.359Z,47.10
2018-03-02T02:47:17.922Z,46.80
2018-03-02T02:49:45.454Z,46.70
2018-03-02T02:52:13.070Z,46.80
2018-03-02T02:54:40.590Z,46.80
2018-03-02T02:57:08.144Z,46.70
2018-03-02T02:59:35.705Z,46.60
2018-03-02T03:02:03.239Z,46.80
2018-03-02T03:04:31.678Z,46.90
2018-03-02T03:06:59.226Z,46.80
2018-03-02T03:09:26.751Z,46.90
2018-03-02T03:11:54.317Z,47.10
2018-03-02T03:14:21.869Z,47.20
2018-03-02T03:16:49.428Z,47.50
2018-03-02T03:19:16.978Z,47.40
2018-03-02T03:21:44.547Z,47.60
2018-03-02T03:24:12.107Z,47.70
2018-03-02T03:26:39.751Z,47.80
2018-03-02T03:29:07.357Z,47.80
2018-03-02T03:31:34.905Z,48.00
2018-03-02T03:34:02.454Z,48.10
2018-03-02T03:36:30.016Z,48.10
2018-03-02T03:38:57.580Z,48.00
2018-03-02T03:41:25.134Z,48.00
2018-03-02T03:43:52.674Z,48.00
2018-03-02T03:46:20.238Z,48.00
2018-03-02T03:48:47.814Z,49.00
2018-03-02T03:51:16.201Z,48.30
2018-03-02T03:53:43.711Z,48.20
2018-03-02T03:56:11.252Z,48.10
2018-03-02T03:58:38.802Z,48.20
2018-03-02T04:01:07.125Z,48.40
2018-03-02T04:03:34.754Z,48.40
2018-03-02T04:06:03.056Z,48.50
2018-03-02T04:08:30.592Z,48.50
2018-03-02T04:10:58.908Z,48.60
2018-03-02T04:13:26.463Z,48.60
2018-03-02T04:15:53.985Z,48.80
2018-03-02T04:18:21.565Z,48.90
2018-03-02T04:20:49.888Z,49.50
2018-03-02T04:23:17.447Z,49.50
2018-03-02T04:25:45.023Z,49.40
2018-03-02T04:28:12.582Z,49.50
2018-03-02T04:30:40.138Z,49.50
2018-03-02T04:33:07.669Z,49.50
2018-03-02T04:35:35.476Z,49.50
2018-03-02T04:38:03.341Z,49.70
2018-03-02T04:40:31.048Z,49.70
2018-03-02T04:42:58.597Z,49.80
2018-03-02T04:45:26.142Z,49.90
2018-03-02T04:47:53.754Z,49.80
2018-03-02T04:50:21.330Z,49.80
2018-03-02T04:52:48.857Z,49.80
2018-03-02T04:55:16.391Z,49.70
2018-03-02T04:57:44.708Z,49.70
2018-03-02T05:00:12.333Z,49.70
2018-03-02T05:02:40.683Z,49.80
2018-03-02T05:05:08.309Z,49.80
2018-03-02T05:07:35.848Z,50.10
2018-03-02T05:10:04.154Z,50.30
2018-03-02T05:12:31.677Z,50.30
2018-03-02T05:14:59.229Z,50.30
2018-03-02T05:17:26.789Z,50.30
2018-03-02T05:19:54.321Z,50.30
2018-03-02T05:22:21.861Z,50.30
2018-03-02T05:24:50.157Z,50.40
2018-03-02T05:27:17.850Z,50.30
2018-03-02T05:29:45.400Z,50.30
2018-03-02T05:32:12.940Z,50.50
2018-03-02T05:34:41.231Z,50.60
2018-03-02T05:37:09.531Z,50.40
2018-03-02T05:39:37.124Z,50.40
2018-03-02T05:42:04.663Z,50.70
2018-03-02T05:44:32.209Z,50.50
2018-03-02T05:47:00.615Z,50.50
2018-03-02T05:49:28.144Z,50.50
2018-03-02T05:51:56.708Z,51.20
2018-03-02T05:54:24.255Z,50.50
2018-03-02T05:56:51.796Z,50.80
2018-03-02T05:59:19.338Z,50.80
2018-03-02T06:01:47.652Z,51.10
2018-03-02T06:04:15.225Z,51.10
2018-03-02T06:06:42.766Z,51.00
2018-03-02T06:09:10.314Z,50.90
2018-03-02T06:11:38.650Z,50.90
2018-03-02T06:14:06.194Z,50.80
2018-03-02T06:16:33.741Z,51.10
2018-03-02T06:19:01.292Z,51.10
2018-03-02T06:21:29.608Z,51.20
2018-03-02T06:23:57.152Z,51.00
2018-03-02T06:26:24.679Z,51.00
2018-03-02T06:28:52.234Z,51.00
2018-03-02T06:31:20.542Z,50.90
2018-03-02T06:33:48.083Z,50.90
2018-03-02T06:36:15.628Z,51.10
2018-03-02T06:38:43.176Z,51.30
2018-03-02T06:41:10.735Z,51.30
2018-03-02T06:43:38.284Z,51.20
2018-03-02T06:46:06.590Z,51.30
2018-03-02T06:48:34.157Z,51.30
2018-03-02T06:51:01.692Z,51.30
2018-03-02T06:53:30.028Z,51.30
2018-03-02T06:55:57.574Z,51.30
2018-03-02T06:58:25.106Z,51.20
2018-03-02T07:00:53.436Z,51.60
2018-03-02T07:03:20.990Z,51.60
2018-03-02T07:05:48.540Z,51.50
2018-03-02T07:08:16.070Z,51.20
2018-03-02T07:10:43.611Z,51.50
2018-03-02T07:13:11.174Z,52.00
2018-03-02T07:15:39.485Z,51.30
2018-03-02T07:18:07.034Z,51.20
2018-03-02T07:20:34.571Z,51.30
2018-03-02T07:23:02.134Z,51.30
2018-03-02T07:25:29.665Z,51.30
2018-03-02T07:27:57.222Z,51.00
2018-03-02T07:30:25.667Z,51.30
2018-03-02T07:32:53.227Z,51.30
2018-03-02T07:35:20.760Z,51.20
2018-03-02T07:37:48.300Z,51.10
2018-03-02T07:40:16.674Z,51.20
2018-03-02T07:42:44.254Z,51.10
2018-03-02T07:45:12.561Z,51.00
2018-03-02T07:47:40.107Z,51.00
2018-03-02T07:50:08.433Z,50.50
2018-03-02T07:52:36.004Z,51.00
2018-03-02T07:55:03.564Z,50.10
2018-03-02T07:57:31.126Z,50.00
2018-03-02T07:59:58.646Z,49.60
2018-03-02T08:02:26.957Z,49.90
2018-03-02T08:04:54.513Z,49.90
2018-03-02T08:07:22.080Z,49.50
2018-03-02T08:09:49.619Z,48.90
2018-03-02T08:12:17.936Z,48.80
2018-03-02T08:14:45.500Z,48.80
2018-03-02T08:17:13.044Z,48.90
2018-03-02T08:19:41.385Z,47.90
2018-03-02T08:22:08.911Z,47.90
2018-03-02T08:24:36.509Z,48.00
2018-03-02T08:27:04.056Z,48.00
2018-03-02T08:29:31.590Z,48.00
2018-03-02T08:31:59.938Z,47.60
2018-03-02T08:34:27.487Z,47.60
2018-03-02T08:36:55.795Z,47.60
2018-03-02T08:39:23.346Z,47.60
2018-03-02T08:41:50.880Z,47.70
2018-03-02T08:44:18.453Z,47.80
2018-03-02T08:46:45.994Z,47.60
2018-03-02T08:49:13.541Z,47.50
2018-03-02T08:51:41.860Z,47.00
2018-03-02T08:54:09.400Z,47.00
2018-03-02T08:56:37.027Z,46.80
2018-03-02T08:59:04.571Z,46.70
2018-03-02T09:01:32.137Z,46.50
2018-03-02T09:03:59.687Z,46.30
2018-03-02T09:06:27.223Z,46.40
2018-03-02T09:08:55.546Z,46.40
2018-03-02T09:11:23.093Z,46.40
2018-03-02T09:13:50.632Z,46.50
2018-03-02T09:16:18.930Z,46.30
2018-03-02T09:18:46.493Z,46.30
2018-03-02T09:21:14.073Z,46.30
2018-03-02T09:23:41.615Z,46.00
2018-03-02T09:26:09.920Z,45.80
2018-03-02T09:28:37.461Z,45.80
2018-03-02T09:31:05.812Z,45.80
2018-03-02T09:33:33.405Z,45.80
2018-03-02T09:36:01.718Z,46.80
2018-03-02T09:38:29.278Z,46.60
2018-03-02T09:40:57.060Z,47.50
2018-03-02T09:43:24.611Z,47.10
2018-03-02T09:45:52.213Z,47.30
2018-03-02T09:48:19.754Z,47.90
2018-03-02T09:50:47.298Z,48.30
2018-03-02T09:53:14.828Z,49.20
2018-03-02T09:55:42.383Z,49.60
2018-03-02T09:58:11.027Z,51.50
2018-03-02T10:00:38.580Z,51.40
2018-03-02T10:03:06.906Z,53.40
2018-03-02T10:05:34.452Z,52.80
2018-03-02T10:08:02.030Z,52.80
2018-03-02T10:10:29.593Z,52.60
2018-03-02T10:12:57.130Z,53.00
2018-03-02T10:15:24.691Z,52.30
2018-03-02T10:17:53.004Z,52.30
2018-03-02T10:20:20.539Z,52.30
2018-03-02T10:22:48.884Z,51.00
2018-03-02T10:25:16.489Z,50.90
2018-03-02T10:27:44.035Z,50.10
2018-03-02T10:30:11.592Z,50.30
2018-03-02T10:32:39.202Z,50.40
2018-03-02T10:35:06.773Z,49.70
2018-03-02T10:37:34.350Z,50.00
2018-03-02T10:40:01.882Z,49.60
2018-03-02T10:42:29.443Z,49.50
2018-03-02T10:44:57.850Z,49.10
2018-03-02T10:47:25.414Z,49.10
2018-03-02T10:49:52.950Z,48.80
2018-03-02T10:52:21.258Z,48.30
2018-03-02T10:54:48.852Z,48.00
2018-03-02T10:57:16.447Z,47.00
2018-03-02T10:59:44.026Z,47.00
2018-03-02T11:02:17.038Z,46.30
2018-03-02T11:04:47.508Z,47.20
2018-03-02T11:07:15.824Z,47.80
2018-03-02T11:09:43.380Z,47.20
2018-03-02T11:12:10.923Z,47.20
2018-03-02T11:14:38.462Z,47.10
2018-03-02T11:17:06.032Z,47.20
2018-03-02T11:19:33.694Z,46.60
2018-03-02T11:22:01.244Z,46.50
2018-03-02T11:24:28.793Z,47.00
2018-03-02T11:26:57.120Z,47.40
2018-03-02T11:29:24.678Z,47.40
2018-03-02T11:31:52.240Z,47.00
2018-03-02T11:34:19.799Z,47.10
2018-03-02T11:36:47.335Z,46.70
2018-03-02T11:39:15.658Z,46.90
2018-03-02T11:41:43.219Z,46.90
2018-03-02T11:44:10.779Z,46.80
2018-03-02T11:46:38.340Z,46.40
2018-03-02T11:49:05.893Z,46.60
2018-03-02T11:51:34.203Z,46.80
2018-03-02T11:54:01.844Z,46.80
2018-03-02T11:56:30.198Z,46.80
2018-03-02T11:58:57.812Z,46.90
2018-03-02T12:01:26.081Z,48.20
2018-03-02T12:03:54.396Z,48.60
2018-03-02T12:06:21.951Z,48.60
2018-03-02T12:08:49.486Z,48.40
2018-03-02T12:11:17.809Z,48.30
2018-03-02T12:13:45.376Z,48.90
2018-03-02T12:16:13.658Z,49.00
2018-03-02T12:18:41.307Z,49.00
2018-03-02T12:21:08.872Z,49.60
2018-03-02T12:23:36.415Z,50.30
2018-03-02T12:26:04.811Z,51.00
2018-03-02T12:28:33.156Z,51.30
2018-03-02T12:31:00.721Z,51.30
2018-03-02T12:33:28.270Z,51.30
2018-03-02T12:35:55.836Z,51.50
2018-03-02T12:38:23.392Z,51.30
2018-03-02T12:40:51.008Z,50.70
2018-03-02T12:43:19.339Z,52.20
2018-03-02T12:45:46.916Z,52.10
2018-03-02T12:48:14.473Z,52.70
2018-03-02T12:50:42.083Z,52.80
2018-03-02T12:53:10.386Z,52.00
2018-03-02T12:55:37.963Z,51.90
2018-03-02T12:58:05.531Z,51.10
2018-03-02T13:00:33.241Z,52.10
2018-03-02T13:03:00.753Z,51.80
2018-03-02T13:05:28.279Z,53.50
2018-03-02T13:07:55.898Z,52.70
2018-03-02T13:10:23.438Z,53.80
2018-03-02T13:12:51.757Z,53.30
2018-03-02T13:15:19.308Z,53.20
2018-03-02T13:17:46.908Z,53.70
2018-03-02T13:20:14.489Z,54.00
2018-03-02T13:22:42.746Z,55.00
2018-03-02T13:25:11.360Z,55.60
2018-03-02T13:27:50.764Z,55.60
2018-03-02T13:30:18.336Z,55.90
2018-03-02T13:33:06.722Z,56.60
2018-03-02T13:35:35.020Z,59.80
2018-03-02T13:38:02.603Z,59.90
2018-03-02T13:40:42.094Z,60.30
2018-03-02T13:43:09.636Z,61.90
2018-03-02T13:45:37.197Z,63.70
2018-03-02T13:48:34.501Z,64.20
2018-03-02T13:51:02.826Z,66.30
2018-03-02T13:53:30.384Z,66.30
2018-03-02T13:55:57.943Z,67.70
2018-03-02T13:58:25.482Z,69.70
2018-03-02T14:00:53.158Z,71.40
2018-03-02T14:03:32.512Z,73.20
2018-03-02T14:06:00.095Z,73.60
2018-03-02T14:08:27.646Z,74.40
2018-03-02T14:10:55.192Z,74.70
2018-03-02T14:13:22.739Z,75.60
2018-03-02T14:15:51.049Z,75.80
2018-03-02T14:18:18.577Z,75.60
2018-03-02T14:20:46.879Z,76.30
2018-03-02T14:23:14.467Z,76.30
2018-03-02T14:25:42.006Z,75.80
2018-03-02T14:28:09.557Z,76.50
2018-03-02T14:30:37.880Z,77.40
2018-03-02T14:33:05.422Z,77.40
2018-03-02T14:35:32.984Z,77.40
2018-03-02T14:38:00.580Z,78.50
2018-03-02T14:40:28.334Z,77.80
2018-03-02T14:42:55.871Z,77.90
2018-03-02T14:45:24.191Z,78.80
2018-03-02T14:47:51.763Z,78.80
2018-03-02T14:50:19.335Z,79.30
2018-03-02T14:52:46.979Z,80.20
2018-03-02T14:55:14.517Z,80.40
2018-03-02T14:57:43.328Z,81.60
2018-03-02T15:00:10.974Z,81.60
2018-03-02T15:02:38.535Z,81.50
2018-03-02T15:05:06.100Z,81.80
2018-03-02T15:07:33.685Z,81.80
2018-03-02T15:10:01.247Z,81.80
2018-03-02T15:12:29.969Z,81.60
2018-03-02T15:14:57.527Z,81.60
2018-03-02T15:17:25.103Z,81.40
2018-03-02T15:19:52.670Z,81.70
2018-03-02T15:22:20.233Z,81.90
2018-03-02T15:24:47.825Z,81.70
2018-03-02T15:27:15.377Z,82.00
2018-03-02T15:29:42.927Z,81.60
2018-03-02T15:32:10.508Z,81.40
2018-03-02T15:34:38.069Z,81.40
2018-03-02T15:37:05.928Z,80.80
2018-03-02T15:39:33.501Z,81.00
2018-03-02T15:42:01.774Z,81.20
2018-03-02T15:44:29.350Z,81.80
2018-03-02T15:46:56.923Z,81.90
2018-03-02T15:49:24.500Z,82.40
2018-03-02T15:51:52.065Z,82.70
2018-03-02T15:54:19.663Z,82.70
2018-03-02T15:56:47.214Z,83.30
2018-03-02T15:59:14.751Z,83.60
2018-03-02T16:01:42.322Z,83.50
2018-03-02T16:04:09.862Z,83.80
2018-03-02T16:06:37.479Z,83.50
2018-03-02T16:09:05.023Z,83.90
2018-03-02T16:11:32.571Z,83.20
2018-03-02T16:14:00.165Z,83.40
2018-03-02T16:16:27.711Z,83.20
2018-03-02T16:18:55.275Z,83.20
2018-03-02T16:21:22.851Z,83.30
2018-03-02T16:23:51.163Z,84.30
2018-03-02T16:26:18.756Z,83.40
2018-03-02T16:28:47.090Z,83.50
2018-03-02T16:31:14.644Z,83.50
2018-03-02T16:33:42.196Z,83.50
2018-03-02T16:36:09.753Z,83.90
2018-03-02T16:38:37.381Z,84.10
2018-03-02T16:41:04.947Z,84.10
2018-03-02T16:43:32.577Z,84.10
2018-03-02T16:46:00.139Z,84.20
2018-03-02T16:48:27.737Z,84.50
2018-03-02T16:50:55.329Z,84.80
2018-03-02T16:53:23.662Z,85.20
2018-03-02T16:55:51.975Z,85.00
2018-03-02T16:58:19.528Z,85.00
2018-03-02T17:00:48.609Z,84.90
2018-03-02T17:03:16.548Z,84.90
2018-03-02T17:05:44.273Z,85.10
2018-03-02T17:08:11.826Z,85.40
2018-03-02T17:10:39.404Z,85.20
2018-03-02T17:13:06.958Z,85.30
2018-03-02T17:15:34.550Z,85.60
2018-03-02T17:18:02.113Z,85.50
2018-03-02T17:20:29.642Z,85.60
2018-03-02T17:22:57.227Z,85.90
2018-03-02T17:25:24.786Z,86.00
2018-03-02T17:27:52.368Z,86.00
2018-03-02T17:30:19.927Z,86.40
2018-03-02T17:32:47.494Z,86.60
2018-03-02T17:35:15.076Z,86.80
2018-03-02T17:37:42.631Z,87.10
2018-03-02T17:40:11.716Z,87.30
2018-03-02T17:42:39.299Z,87.20
2018-03-02T17:45:06.879Z,87.10
2018-03-02T17:47:35.189Z,87.70
2018-03-02T17:50:02.763Z,87.70
2018-03-02T17:52:30.339Z,87.50
2018-03-02T17:54:57.894Z,87.30
2018-03-02T17:57:25.496Z,87.50
2018-03-02T17:59:53.052Z,87.70
2018-03-02T18:02:20.633Z,87.60
2018-03-02T18:04:48.208Z,87.90
2018-03-02T18:07:15.767Z,87.90
2018-03-02T18:09:43.330Z,87.80
2018-03-02T18:12:10.921Z,88.30
2018-03-02T18:14:39.247Z,87.80
2018-03-02T18:17:06.847Z,87.80
2018-03-02T18:19:34.410Z,87.70
2018-03-02T18:22:02.024Z,87.60
2018-03-02T18:24:29.591Z,87.80
2018-03-02T18:26:57.166Z,87.90
2018-03-02T18:29:24.749Z,87.80
2018-03-02T18:31:52.299Z,87.80
2018-03-02T18:34:19.840Z,88.10
2018-03-02T18:36:48.223Z,88.30
2018-03-02T18:39:16.550Z,88.60
2018-03-02T18:41:44.140Z,88.60
2018-03-02T18:44:11.705Z,88.40
2018-03-02T18:46:39.264Z,88.50
2018-03-02T18:49:06.849Z,88.50
2018-03-02T18:51:34.417Z,88.40
2018-03-02T18:54:02.052Z,88.70
2018-03-02T18:56:29.613Z,88.50
2018-03-02T18:58:57.187Z,88.80
2018-03-02T19:01:24.779Z,88.80
2018-03-02T19:03:52.340Z,88.90
2018-03-02T19:06:19.968Z,89.00
2018-03-02T19:08:47.582Z,89.00
2018-03-02T19:11:15.128Z,89.00
2018-03-02T19:13:42.767Z,89.10
2018-03-02T19:16:10.405Z,89.10
2018-03-02T19:18:39.068Z,89.30
2018-03-02T19:21:06.724Z,89.30
2018-03-02T19:23:34.388Z,89.50
2018-03-02T19:26:02.035Z,89.60
2018-03-02T19:28:29.705Z,89.70
2018-03-02T19:30:57.446Z,89.50
2018-03-02T19:33:25.274Z,89.40
2018-03-02T19:35:52.934Z,89.30
2018-03-02T19:38:20.576Z,89.60
2018-03-02T19:40:48.264Z,89.90
2018-03-02T19:43:17.442Z,90.00
2018-03-02T19:45:45.918Z,90.10
2018-03-02T19:48:13.612Z,90.10
2018-03-02T19:50:41.218Z,90.00
2018-03-02T19:53:08.960Z,90.00
2018-03-02T19:55:36.648Z,89.90
2018-03-02T19:58:04.312Z,89.70
2018-03-02T20:00:32.084Z,89.70
2018-03-02T20:03:00.520Z,90.10
2018-03-02T20:05:28.296Z,89.50
2018-03-02T20:07:56.135Z,89.80
2018-03-02T20:10:24.582Z,89.20
2018-03-02T20:12:52.282Z,89.10
2018-03-02T20:15:20.706Z,89.50
2018-03-02T20:17:48.424Z,89.50
2018-03-02T20:20:16.955Z,89.60
2018-03-02T20:22:44.630Z,89.60
2018-03-02T20:25:12.249Z,89.70
2018-03-02T20:27:39.920Z,89.60
2018-03-02T20:30:07.598Z,89.70
2018-03-02T20:32:36.326Z,89.70
2018-03-02T20:35:04.021Z,89.60
2018-03-02T20:37:31.651Z,90.20
2018-03-02T20:39:59.294Z,89.80
2018-03-02T20:42:28.412Z,89.80
2018-03-02T20:44:56.145Z,89.80
2018-03-02T20:47:23.759Z,90.00
2018-03-02T20:49:51.389Z,90.00
2018-03-02T20:52:19.733Z,90.20
2018-03-02T20:54:47.448Z,89.90
2018-03-02T20:57:15.811Z,90.10
2018-03-02T20:59:43.393Z,90.10
2018-03-02T21:02:11.859Z,90.30
2018-03-02T21:04:39.578Z,90.30
2018-03-02T21:07:07.150Z,90.20
2018-03-02T21:09:34.822Z,90.40
2018-03-02T21:12:02.517Z,90.40
2018-03-02T21:14:30.098Z,90.20
2018-03-02T21:16:57.688Z,90.10
2018-03-02T21:19:26.046Z,90.10
2018-03-02T21:21:53.698Z,90.10
2018-03-02T21:24:21.361Z,90.10
2018-03-02T21:26:48.941Z,90.20
2018-03-02T21:29:16.522Z,90.10
2018-03-02T21:31:44.127Z,90.10
2018-03-02T21:34:11.702Z,90.00
2018-03-02T21:36:39.271Z,90.10
2018-03-02T21:39:06.828Z,90.10
2018-03-02T21:41:34.404Z,90.20
2018-03-02T21:44:01.963Z,90.10
2018-03-02T21:46:29.559Z,90.10
2018-03-02T21:48:57.192Z,90.30
2018-03-02T21:51:24.745Z,90.30
2018-03-02T21:53:53.068Z,90.40
2018-03-02T21:56:20.621Z,90.30
2018-03-02T21:58:48.223Z,90.30
2018-03-02T22:01:15.784Z,90.30
2018-03-02T22:03:43.341Z,90.30
2018-03-02T22:06:12.566Z,90.30
2018-03-02T22:08:40.203Z,90.30
2018-03-02T22:11:07.783Z,90.30
2018-03-02T22:13:35.336Z,90.30
2018-03-02T22:16:03.000Z,90.30
2018-03-02T22:18:30.559Z,90.40
2018-03-02T22:20:58.143Z,90.30
2018-03-02T22:23:25.752Z,90.40
2018-03-02T22:25:54.069Z,90.30
2018-03-02T22:28:21.626Z,90.30
2018-03-02T22:30:49.228Z,90.40
2018-03-02T22:33:16.789Z,90.50
2018-03-02T22:35:44.357Z,90.60
2018-03-02T22:38:11.907Z,90.60
2018-03-02T22:40:39.603Z,90.50
2018-03-02T22:43:07.181Z,90.70
2018-03-02T22:45:35.549Z,90.50
2018-03-02T22:48:03.130Z,90.50
2018-03-02T22:50:30.711Z,90.60
2018-03-02T22:52:59.026Z,90.70
2018-03-02T22:55:26.610Z,90.70
2018-03-02T22:57:54.289Z,90.60
2018-03-02T23:00:21.923Z,90.50
2018-03-02T23:02:49.464Z,90.50
2018-03-02T23:05:17.809Z,90.40
2018-03-02T23:07:46.134Z,90.50
2018-03-02T23:10:14.459Z,90.50
2018-03-02T23:12:42.048Z,90.50
2018-03-02T23:15:09.592Z,90.60
2018-03-02T23:17:37.149Z,90.60
2018-03-02T23:20:04.763Z,90.60
2018-03-02T23:22:33.088Z,91.20
2018-03-02T23:25:00.673Z,90.90
2018-03-02T23:27:28.285Z,90.80
2018-03-02T23:29:56.638Z,90.80
2018-03-02T23:32:24.221Z,90.80
2018-03-02T23:34:51.755Z,90.90
2018-03-02T23:37:19.359Z,90.90
2018-03-02T23:39:46.913Z,90.80
2018-03-02T23:42:14.459Z,90.80
2018-03-02T23:44:42.006Z,90.80
2018-03-02T23:47:09.616Z,90.80
2018-03-02T23:49:37.204Z,91.00
2018-03-02T23:52:05.535Z,91.10
2018-03-02T23:54:33.081Z,91.10
2018-03-02T23:57:00.644Z,91.30
2018-03-02T23:59:28.185Z,91.40
